Time;durP1;ratioP1;P1;durP2;ratioP2;P2;SDS_P1;SDS_P2;PMS_P1;PMS_P2;Temp;Humidity;BMP_temperature;BMP_pressure;BME280_temperature;BME280_humidity;BME280_pressure;Samples;Min_cycle;Max_cycle;Signal;HPM_P1;HPM_P2
2022/11/04 00:01:12;;;;;;;41.83;18.95;;;;;;;;;;5092648;27;20035;-69
2022/11/04 00:03:37;;;;;;;39.53;19.48;;;;;;;;;;5082625;28;20092;-69
2022/11/04 00:06:03;;;;;;;38.13;18.83;;;;;;;;;;5110135;27;20911;-68
2022/11/04 00:08:28;;;;;;;37.25;19.02;;;;;;;;;;5088060;28;20071;-75
2022/11/04 00:13:38;;;;;;;40.58;19.52;;;;;;;;;;5104184;27;20091;-69
2022/11/04 00:18:47;;;;;;;41.50;19.13;;;;;;;;;;5108910;27;20825;-69
2022/11/04 00:29:24;;;;;;;41.35;20.23;;;;;;;;;;5111433;27;20168;-69
2022/11/04 00:34:33;;;;;;;41.75;20.25;;;;;;;;;;5103861;28;20887;-69
2022/11/04 00:36:59;;;;;;;44.40;21.23;;;;;;;;;;5111283;27;20027;-69
2022/11/04 00:39:24;;;;;;;45.97;20.30;;;;;;;;;;5108568;28;20728;-69
2022/11/04 00:41:49;;;;;;;39.20;20.80;;;;;;;;;;5101967;27;20058;-68
2022/11/04 00:44:14;;;;;;;40.77;20.67;;;;;;;;;;5086815;28;20741;-69
2022/11/04 00:46:40;;;;;;;45.67;21.77;;;;;;;;;;5107442;27;20282;-68
2022/11/04 00:49:05;;;;;;;47.00;21.67;;;;;;;;;;5102723;27;20040;-69
2022/11/04 00:51:30;;;;;;;53.43;22.27;;;;;;;;;;5088777;27;20315;-69
2022/11/04 00:53:57;;;;;;;44.70;21.13;;;;;;;;;;5100907;27;20762;-69
2022/11/04 00:56:22;;;;;;;43.67;20.67;;;;;;;;;;5106507;28;20019;-69
2022/11/04 00:58:48;;;;;;;49.30;21.90;;;;;;;;;;5109248;27;20019;-69
2022/11/04 01:01:18;;;;;;;44.05;20.92;;;;;;;;;;5090078;28;20039;-69
2022/11/04 01:03:44;;;;;;;46.35;21.23;;;;;;;;;;5103365;28;20036;-69
2022/11/04 01:06:09;;;;;;;46.95;20.88;;;;;;;;;;5105749;28;20499;-68
2022/11/04 01:08:34;;;;;;;46.15;21.27;;;;;;;;;;5102909;27;20038;-69
2022/11/04 01:11:00;;;;;;;43.92;21.85;;;;;;;;;;5089102;28;20047;-69
2022/11/04 01:13:26;;;;;;;50.22;23.40;;;;;;;;;;5108404;27;20039;-66
2022/11/04 01:15:51;;;;;;;48.07;21.63;;;;;;;;;;5104266;28;20080;-69
2022/11/04 01:18:16;;;;;;;46.93;21.50;;;;;;;;;;5090955;28;20822;-69
2022/11/04 01:20:41;;;;;;;50.10;22.13;;;;;;;;;;5091803;28;20084;-69
2022/11/04 01:23:07;;;;;;;51.83;22.77;;;;;;;;;;5112510;28;20036;-69
2022/11/04 01:25:32;;;;;;;47.93;22.40;;;;;;;;;;5109073;28;20023;-69
2022/11/04 01:27:58;;;;;;;46.90;22.33;;;;;;;7.13;nan;100330.63;5091689;28;20276;-69
2022/11/04 01:30:23;;;;;;;45.92;22.50;;;;;;;;;;5091080;28;20283;-69
2022/11/04 01:32:48;;;;;;;47.77;22.30;;;;;;;;;;5105251;28;20054;-69
2022/11/04 01:35:13;;;;;;;45.72;22.58;;;;;;;;;;5107989;28;20145;-69
2022/11/04 01:37:39;;;;;;;50.40;21.47;;;;;;;;;;5107669;28;20062;-68
2022/11/04 01:40:04;;;;;;;51.37;22.70;;;;;;;;;;5113651;28;20294;-70
2022/11/04 01:42:30;;;;;;;49.85;22.63;;;;;;;;;;5082758;28;20047;-70
2022/11/04 01:44:57;;;;;;;48.92;23.52;;;;;;;;;;5106176;28;20077;-70
2022/11/04 01:47:22;;;;;;;44.50;22.88;;;;;;;;;;5112770;28;20537;-70
2022/11/04 01:49:53;;;;;;;47.90;22.47;;;;;;;;;;5101221;28;20035;-70
2022/11/04 01:52:25;;;;;;;45.67;21.00;;;;;;;;;;5087378;28;20662;-70
2022/11/04 01:54:53;;;;;;;46.78;21.40;;;;;;;;;;5107004;28;20015;-70
2022/11/04 01:57:24;;;;;;;47.47;22.20;;;;;;;;;;5086415;28;20032;-69
2022/11/04 01:59:49;;;;;;;45.83;21.65;;;;;;;;;;5102581;28;20068;-68
2022/11/04 02:02:14;;;;;;;48.57;21.87;;;;;;;;;;5104939;28;20019;-70
2022/11/04 02:04:41;;;;;;;44.30;20.40;;;;;;;;;;5105422;28;20924;-68
2022/11/04 02:07:08;;;;;;;46.47;21.70;;;;;;;;;;5104358;28;20280;-67
2022/11/04 02:09:34;;;;;;;43.75;21.08;;;;;;;;;;5087123;28;20020;-68
2022/11/04 02:14:44;;;;;;;43.17;21.88;;;;;;;;;;5094137;28;20050;-68
2022/11/04 02:17:10;;;;;;;43.38;21.35;;;;;;;;;;5082745;28;20052;-69
2022/11/04 02:19:45;;;;;;;51.40;21.77;;;;;;;;;;5091205;28;20463;-68
2022/11/04 02:22:25;;;;;;;43.58;21.05;;;;;;;;;;5092373;28;20299;-68
2022/11/04 02:25:02;;;;;;;46.17;20.88;;;;;;;;;;5089272;28;20481;-68
2022/11/04 02:27:31;;;;;;;48.17;21.55;;;;;;;;;;5094385;28;20034;-69
2022/11/04 02:30:04;;;;;;;47.17;21.20;;;;;;;;;;5093677;28;20056;-68
2022/11/04 02:32:30;;;;;;;41.80;20.52;;;;;;;;;;5095223;28;20035;-70
2022/11/04 02:35:14;;;;;;;49.50;22.77;;;;;;;;;;5085937;28;20106;-67
2022/11/04 02:37:46;;;;;;;47.72;20.75;;;;;;;;;;5087287;28;20389;-68
2022/11/04 02:40:23;;;;;;;47.67;21.88;;;;;;;;;;5090775;28;20020;-68
2022/11/04 02:42:56;;;;;;;46.22;21.15;;;;;;;;;;5078887;28;20112;-67
2022/11/04 02:45:44;;;;;;;47.10;21.80;;;;;;;;;;5089412;28;20020;-68
2022/11/04 02:48:32;;;;;;;45.55;21.63;;;;;;;;;;5080454;28;20043;-67
2022/11/04 02:50:58;;;;;;;49.05;21.95;;;;;;;;;;5082788;28;20032;-69
2022/11/04 02:53:28;;;;;;;49.37;23.73;;;;;;;;;;5085043;28;20374;-67
2022/11/04 02:55:55;;;;;;;44.22;21.38;;;;;;;;;;5086535;28;20325;-69
2022/11/04 02:58:24;;;;;;;46.63;21.90;;;;;;;;;;5089933;28;20028;-70
2022/11/04 03:00:51;;;;;;;46.70;21.73;;;;;;;;;;5086021;28;20034;-69
2022/11/04 03:03:21;;;;;;;46.13;22.23;;;;;;;;;;5090855;28;20039;-69
2022/11/04 03:05:48;;;;;;;49.92;22.00;;;;;;;;;;5084882;28;20032;-69
2022/11/04 03:08:16;;;;;;;51.13;22.15;;;;;;;;;;5091308;28;20027;-69
2022/11/04 03:10:42;;;;;;;46.03;22.38;;;;;;;;;;5091094;28;20048;-69
2022/11/04 03:13:12;;;;;;;46.88;21.75;;;;;;;;;;5116139;27;20097;-69
2022/11/04 03:15:39;;;;;;;47.35;21.33;;;;;;;;;;5092979;28;20555;-70
2022/11/04 03:18:04;;;;;;;49.00;22.27;;;;;;;;;;5100723;27;20027;-69
2022/11/04 03:20:30;;;;;;;45.47;20.67;;;;;;;;;;5107027;27;20080;-68
2022/11/04 03:22:58;;;;;;;46.58;22.00;;;;;;;;;;5110904;27;20553;-68
2022/11/04 03:25:36;;;;;;;47.35;22.10;;;;;;;;;;5111271;27;20035;-68
2022/11/04 03:28:05;;;;;;;44.22;20.15;;;;;;;;;;5082759;28;20489;-68
2022/11/04 03:30:56;;;;;;;40.22;20.75;;;;;;;;;;5107521;27;20048;-68
2022/11/04 03:33:25;;;;;;;45.67;21.00;;;;;;;;;;5105956;27;20031;-68
2022/11/04 03:35:50;;;;;;;45.97;21.60;;;;;;;;;;5105259;27;20055;-69
2022/11/04 03:38:16;;;;;;;42.83;19.63;;;;;;;;;;5114428;27;20566;-68
2022/11/04 03:40:41;;;;;;;42.53;20.10;;;;;;;;;;5105990;27;20358;-67
2022/11/04 03:43:11;;;;;;;43.90;21.30;;;;;;;;;;5109342;27;20102;-68
2022/11/04 03:45:38;;;;;;;49.72;21.83;;;;;;;;;;5107847;27;20571;-70
2022/11/04 03:48:04;;;;;;;44.05;20.75;;;;;;;;;;5105702;28;20745;-68
2022/11/04 03:50:30;;;;;;;45.80;20.80;;;;;;;;;;5112245;27;20020;-69
2022/11/04 03:52:56;;;;;;;44.22;20.40;;;;;;;;;;5092408;28;20024;-69
2022/11/04 03:55:30;;;;;;;41.17;20.95;;;;;;;;;;5112162;27;20487;-69
2022/11/04 03:58:14;;;;;;;41.55;20.00;;;;;;;;;;5087701;27;20035;-69
2022/11/04 04:00:43;;;;;;;48.20;21.02;;;;;;;;;;5091056;28;20027;-68
2022/11/04 04:03:14;;;;;;;44.42;21.85;;;;;;;;;;5086026;28;20032;-67
2022/11/04 04:05:54;;;;;;;44.00;20.67;;;;;;;;;;5112489;27;20477;-68
2022/11/04 04:08:19;;;;;;;;;;;;;;;;;;5106632;27;20038;-68
2022/11/04 04:11:04;;;;;;;43.58;21.10;;;;;;;;;;5106265;27;20006;-68
2022/11/04 04:13:50;;;;;;;42.28;20.42;;;;;;;;;;5107001;27;20028;-68
2022/11/04 04:16:15;;;;;;;41.40;20.23;;;;;;;;;;5086217;27;20421;-68
2022/11/04 04:18:48;;;;;;;50.27;21.07;;;;;;;;;;5114210;27;20028;-68
2022/11/04 04:21:15;;;;;;;40.63;20.20;;;;;;;;;;5107427;28;20035;-68
2022/11/04 04:29:11;;;;;;;43.80;19.98;;;;;;;;;;5105719;27;20076;-67
2022/11/04 04:31:52;;;;;;;43.30;20.25;;;;;;;;;;5086005;28;20882;-68
2022/11/04 04:34:22;;;;;;;45.92;21.52;;;;;;;;;;5109867;27;20374;-69
2022/11/04 04:37:08;;;;;;;45.83;21.13;;;;;;;;;;5087456;28;20031;-68
2022/11/04 04:45:05;;;;;;;49.85;21.05;;;;;;;;;;5106515;27;20111;-69
2022/11/04 04:47:36;;;;;;;39.75;20.70;;;;;;;;;;5090625;28;20027;-69
2022/11/04 04:50:02;;;;;;;46.00;21.77;;;;;;;;;;5110350;27;20032;-68
2022/11/04 04:52:29;;;;;;;41.30;20.80;;;;;;;;;;5101339;28;20743;-67
2022/11/04 04:54:55;;;;;;;51.60;23.40;;;;;;;;;;5110382;27;20023;-66
2022/11/04 04:57:20;;;;;;;49.67;21.63;;;;;;;;;;5108727;27;20035;-67
2022/11/04 04:59:45;;;;;;;43.70;20.47;;;;;;;;;;5088569;28;20707;-67
2022/11/04 05:02:10;;;;;;;42.40;20.67;;;;;;;;;;5100167;28;20313;-67
2022/11/04 05:04:36;;;;;;;46.00;21.60;;;;;;;;;;5089935;27;20873;-67
2022/11/04 05:07:01;;;;;;;54.53;22.87;;;;;;;;;;5103374;28;20280;-66
2022/11/04 05:09:26;;;;;;;42.75;20.58;;;;;;;;;;5100789;27;20765;-66
2022/11/04 05:11:52;;;;;;;42.85;20.17;;;;;;;;;;5100997;28;20054;-68
2022/11/04 05:14:17;;;;;;;45.78;20.55;;;;;;;;;;5090214;27;20036;-69
2022/11/04 05:16:42;;;;;;;43.53;20.50;;;;;;;;;;5106379;27;20063;-69
2022/11/04 05:19:07;;;;;;;44.50;20.50;;;;;;;;;;5100200;28;20620;-68
2022/11/04 05:21:33;;;;;;;46.30;22.00;;;;;;;;;;5104208;28;20284;-70
2022/11/04 05:23:58;;;;;;;48.70;20.67;;;;;;;;;;5085020;28;20276;-69
2022/11/04 05:26:23;;;;;;;45.97;20.27;;;;;;;;;;5084247;28;20027;-70
2022/11/04 05:28:48;;;;;;;42.93;21.10;;;;;;;;;;5105525;28;20275;-71
2022/11/04 05:31:14;;;;;;;45.87;20.17;;;;;;;7.46;nan;100176.00;5103510;28;20275;-71
2022/11/04 05:33:39;;;;;;;45.58;19.77;;;;;;;;;;5105849;28;20027;-71
2022/11/04 05:36:09;;;;;;;46.67;20.77;;;;;;;;;;5088984;28;20049;-71
2022/11/04 05:38:34;;;;;;;45.22;20.20;;;;;;;;;;5103422;28;20292;-71
2022/11/04 05:41:00;;;;;;;43.88;19.95;;;;;;;;;;5104907;28;20393;-71
2022/11/04 05:43:25;;;;;;;50.75;21.27;;;;;;;;;;5111176;28;20031;-71
2022/11/04 05:45:50;;;;;;;45.63;19.40;;;;;;;;;;5104039;27;20020;-71
2022/11/04 05:48:16;;;;;;;47.07;20.43;;;;;;;;;;5104657;27;20027;-71
2022/11/04 05:50:41;;;;;;;41.80;19.93;;;;;;;;;;5095112;27;20329;-72
2022/11/04 05:53:06;;;;;;;47.17;20.95;;;;;;;;;;5104635;27;20303;-72
2022/11/04 05:55:31;;;;;;;52.63;20.67;;;;;;;;;;5116734;27;20050;-71
2022/11/04 05:57:58;;;;;;;47.75;21.05;;;;;;;;;;5112444;27;20314;-67
2022/11/04 06:00:23;;;;;;;48.47;21.25;;;;;;;;;;5107243;27;20069;-68
2022/11/04 06:02:48;;;;;;;47.30;21.00;;;;;;;;;;5093452;28;20031;-65
2022/11/04 06:05:14;;;;;;;53.60;23.17;;;;;;;;;;5104988;27;20023;-68
2022/11/04 06:07:39;;;;;;;61.65;23.27;;;;;;;;;;5112337;27;20280;-68
2022/11/04 06:10:05;;;;;;;57.40;22.33;;;;;;;;;;5102984;27;20027;-67
2022/11/04 06:12:31;;;;;;;45.72;21.38;;;;;;;;;;5096822;27;20306;-69
2022/11/04 06:14:56;;;;;;;49.75;21.95;;;;;;;;;;5090326;28;20063;-69
2022/11/04 06:17:21;;;;;;;47.43;21.23;;;;;;;;;;5106635;27;20493;-69
2022/11/04 06:19:47;;;;;;;47.10;20.13;;;;;;;;;;5095016;27;20281;-69
2022/11/04 06:22:13;;;;;;;44.80;21.42;;;;;;;;;;5097310;27;20104;-68
2022/11/04 06:24:38;;;;;;;48.85;21.70;;;;;;;;;;5119758;27;20062;-68
2022/11/04 06:27:04;;;;;;;43.25;21.33;;;;;;;;;;5109264;27;20062;-66
2022/11/04 06:29:29;;;;;;;42.20;20.27;;;;;;;;;;5082914;28;20477;-68
2022/11/04 06:31:54;;;;;;;47.60;21.58;;;;;;;;;;5110264;27;20276;-68
2022/11/04 06:34:19;;;;;;;49.67;21.80;;;;;;;;;;5107602;27;20032;-67
2022/11/04 06:36:45;;;;;;;48.03;22.33;;;;;;;;;;5087495;27;20077;-67
2022/11/04 06:39:10;;;;;;;51.60;22.20;;;;;;;;;;5088447;28;20788;-68
2022/11/04 06:41:35;;;;;;;45.15;20.50;;;;;;;;;;5106441;27;20036;-69
2022/11/04 06:44:00;;;;;;;44.67;22.10;;;;;;;;;;5112503;27;20076;-68
2022/11/04 06:46:26;;;;;;;43.28;21.00;;;;;;;;;;5091429;28;20024;-68
2022/11/04 06:48:51;;;;;;;51.27;22.00;;;;;;;;;;5105068;27;20126;-69
2022/11/04 06:51:16;;;;;;;48.25;21.60;;;;;;;;;;5083271;28;20287;-69
2022/11/04 06:53:42;;;;;;;53.37;23.17;;;;;;;;;;5107102;28;20453;-68
2022/11/04 06:56:08;;;;;;;41.93;20.53;;;;;;;;;;5091559;28;20044;-68
2022/11/04 06:58:33;;;;;;;47.72;21.98;;;;;;;;;;5104219;27;20286;-68
2022/11/04 07:00:58;;;;;;;46.97;22.47;;;;;;;;;;5103930;27;20031;-69
2022/11/04 07:03:24;;;;;;;52.77;23.37;;;;;;;;;;5108857;27;20280;-68
2022/11/04 07:05:49;;;;;;;51.23;22.03;;;;;;;;;;5091901;28;20788;-69
2022/11/04 07:08:14;;;;;;;44.53;21.50;;;;;;;;;;5108988;28;20284;-69
2022/11/04 07:10:39;;;;;;;45.20;21.33;;;;;;;;;;5107551;27;20035;-69
2022/11/04 07:13:05;;;;;;;48.35;21.50;;;;;;;;;;5085405;28;20118;-69
2022/11/04 07:15:32;;;;;;;55.72;23.20;;;;;;;;;;5109879;27;20026;-69
2022/11/04 07:17:57;;;;;;;47.55;20.75;;;;;;;;;;5110187;27;20492;-68
2022/11/04 07:20:22;;;;;;;47.85;20.80;;;;;;;;;;5095108;27;20035;-76
2022/11/04 07:22:48;;;;;;;44.25;19.92;;;;;;;;;;5095218;27;20025;-71
2022/11/04 07:25:13;;;;;;;46.97;20.75;;;;;;;;;;5091506;28;20028;-72
2022/11/04 07:27:38;;;;;;;41.47;20.92;;;;;;;;;;5107919;27;20026;-72
2022/11/04 07:30:05;;;;;;;40.87;20.63;;;;;;;;;;5093169;28;20024;-71
2022/11/04 07:32:31;;;;;;;42.08;20.33;;;;;;;;;;5093842;27;20370;-71
2022/11/04 07:34:56;;;;;;;39.63;20.23;;;;;;;;;;5104210;27;20038;-71
2022/11/04 07:37:21;;;;;;;44.37;19.80;;;;;;;;;;5112197;27;20024;-71
2022/11/04 07:39:47;;;;;;;43.43;19.17;;;;;;;;;;5097420;28;20104;-71
2022/11/04 07:42:12;;;;;;;38.03;19.23;;;;;;;;;;5111146;27;20307;-71
2022/11/04 07:44:37;;;;;;;37.43;18.67;;;;;;;;;;5091697;28;20272;-71
2022/11/04 07:47:02;;;;;;;38.00;19.27;;;;;;;;;;5112867;27;20054;-71
2022/11/04 07:49:28;;;;;;;35.07;18.23;;;;;;;;;;5102893;27;20028;-72
2022/11/04 07:51:53;;;;;;;40.92;18.67;;;;;;;;;;5102080;27;20019;-71
2022/11/04 07:54:18;;;;;;;35.88;18.00;;;;;;;;;;5090766;28;20745;-71
2022/11/04 07:56:44;;;;;;;35.17;18.30;;;;;;;;;;5093780;27;20526;-72
2022/11/04 07:59:10;;;;;;;37.97;18.40;;;;;;;;;;5090260;28;20453;-72
2022/11/04 08:01:35;;;;;;;38.20;18.45;;;;;;;;;;5091381;27;20400;-72
2022/11/04 08:04:00;;;;;;;40.45;19.40;;;;;;;;;;5086334;28;20027;-72
2022/11/04 08:06:26;;;;;;;39.13;18.40;;;;;;;;;;5084099;28;20028;-72
2022/11/04 08:08:52;;;;;;;34.05;17.95;;;;;;;;;;5082303;28;20032;-71
2022/11/04 08:11:19;;;;;;;38.17;18.85;;;;;;;;;;5104175;27;20097;-70
2022/11/04 08:13:44;;;;;;;33.80;17.75;;;;;;;;;;5099070;28;20032;-71
2022/11/04 08:16:19;;;;;;;35.22;19.02;;;;;;;;;;5094302;27;20494;-71
2022/11/04 08:18:45;;;;;;;38.20;18.33;;;;;;;;;;5114929;27;20381;-71
2022/11/04 08:21:11;;;;;;;38.70;18.25;;;;;;;;;;5093647;27;20027;-73
2022/11/04 08:23:36;;;;;;;36.78;18.80;;;;;;;;;;5087171;28;20049;-73
2022/11/04 08:26:06;;;;;;;32.90;16.53;;;;;;;;;;5108216;27;20092;-70
2022/11/04 08:28:31;;;;;;;34.20;17.77;;;;;;;;;;5105020;27;20267;-70
2022/11/04 08:30:58;;;;;;;30.47;16.57;;;;;;;;;;5094310;28;20407;-70
2022/11/04 08:33:25;;;;;;;33.53;17.90;;;;;;;;;;5089523;28;20253;-70
2022/11/04 08:35:50;;;;;;;28.83;16.58;;;;;;;;;;5108181;27;20011;-70
2022/11/04 08:38:16;;;;;;;33.78;16.55;;;;;;;;;;5090702;28;20449;-72
2022/11/04 08:40:43;;;;;;;33.33;17.20;;;;;;;;;;5111764;27;20029;-73
2022/11/04 08:43:08;;;;;;;32.83;16.65;;;;;;;;;;5083519;28;20039;-72
2022/11/04 08:45:37;;;;;;;38.30;17.25;;;;;;;;;;5112127;27;20023;-72
2022/11/04 08:48:02;;;;;;;31.50;16.17;;;;;;;;;;5087116;28;20430;-72
2022/11/04 08:50:28;;;;;;;30.65;15.45;;;;;;;;;;5092025;27;20059;-71
2022/11/04 08:52:54;;;;;;;31.98;16.15;;;;;;;;;;5101958;27;20435;-72
2022/11/04 08:55:19;;;;;;;29.07;16.00;;;;;;;;;;5115324;27;20023;-75
2022/11/04 08:57:44;;;;;;;42.67;16.33;;;;;;;;;;5104847;27;20264;-72
2022/11/04 09:00:10;;;;;;;28.47;15.77;;;;;;;;;;5091607;27;20058;-72
2022/11/04 09:02:35;;;;;;;28.30;15.40;;;;;;;;;;5085001;28;20284;-71
2022/11/04 09:05:01;;;;;;;28.83;15.30;;;;;;;12.62;nan;100110.28;5090508;28;20023;-70
2022/11/04 09:07:26;;;;;;;32.45;15.50;;;;;;;;;;5103476;28;20059;-71
2022/11/04 09:09:51;;;;;;;30.50;14.03;;;;;;;;;;5093044;27;20464;-70
2022/11/04 09:12:17;;;;;;;30.27;15.10;;;;;;;;;;5104364;28;20353;-71
2022/11/04 09:14:42;;;;;;;25.23;13.75;;;;;;;;;;5108009;27;20022;-72
2022/11/04 09:17:07;;;;;;;24.97;12.80;;;;;;;;;;5106699;27;20553;-69
2022/11/04 09:19:32;;;;;;;31.73;13.43;;;;;;;;;;5111219;27;20031;-71
2022/11/04 09:21:58;;;;;;;28.27;12.93;;;;;;;;;;5104038;27;20359;-72
2022/11/04 09:24:23;;;;;;;29.00;13.60;;;;;;;;;;5084003;28;20027;-73
2022/11/04 09:26:48;;;;;;;28.90;13.83;;;;;;;;;;5089575;28;20069;-71
2022/11/04 09:29:13;;;;;;;26.53;14.10;;;;;;;;;;5085873;28;20058;-72
2022/11/04 09:31:39;;;;;;;27.70;14.13;;;;;;;;;;5103583;28;20032;-73
2022/11/04 09:34:04;;;;;;;27.52;13.00;;;;;;;;;;5096520;28;20077;-72
2022/11/04 09:36:29;;;;;;;27.73;14.17;;;;;;;;;;5083928;28;20077;-72
2022/11/04 09:38:55;;;;;;;23.13;13.60;;;;;;;;;;5107752;28;20079;-72
2022/11/04 09:41:28;;;;;;;25.88;12.80;;;;;;;;;;5104130;28;20035;-73
2022/11/04 09:44:10;;;;;;;27.20;13.40;;;;;;;;;;5105866;28;20445;-71
2022/11/04 09:46:39;;;;;;;31.50;13.30;;;;;;;;;;5107761;28;20022;-71
2022/11/04 09:49:04;;;;;;;;;;;;;;;;;;5107692;28;20019;-70
2022/11/04 09:51:30;;;;;;;25.95;12.38;;;;;;;;;;5092661;28;20045;-71
2022/11/04 09:53:57;;;;;;;23.43;12.07;;;;;;;;;;5105109;28;20024;-72
2022/11/04 09:56:26;;;;;;;20.90;12.23;;;;;;;;;;5102564;28;20277;-72
2022/11/04 09:58:51;;;;;;;21.00;12.18;;;;;;;;;;5088661;28;20054;-73
2022/11/04 10:01:16;;;;;;;24.60;12.45;;;;;;;;;;5103595;28;20060;-73
2022/11/04 10:03:51;;;;;;;25.47;11.90;;;;;;;;;;5095172;28;20020;-72
2022/11/04 10:06:45;;;;;;;22.90;11.95;;;;;;;;;;5103333;28;20499;-72
2022/11/04 10:09:16;;;;;;;22.13;12.55;;;;;;;;;;4997032;28;20042;-73
2022/11/04 10:11:47;;;;;;;24.23;11.95;;;;;;;;;;4997433;28;20522;-73
2022/11/04 10:14:24;;;;;;;24.38;12.68;;;;;;;;;;4998979;28;20110;-73
2022/11/04 10:16:55;;;;;;;24.02;12.63;;;;;;;;;;4997509;28;20038;-72
2022/11/04 10:19:36;;;;;;;21.80;11.70;;;;;;;;;;5005973;28;20034;-72
2022/11/04 10:22:03;;;;;;;25.48;11.93;;;;;;;;;;5000094;28;20035;-72
2022/11/04 10:24:45;;;;;;;23.20;12.25;;;;;;;;;;4998097;28;20025;-69
2022/11/04 10:27:14;;;;;;;23.33;12.20;;;;;;;;;;4998977;28;20130;-69
2022/11/04 10:29:41;;;;;;;24.60;13.00;;;;;;;;;;5003115;28;20529;-69
2022/11/04 10:32:33;;;;;;;27.63;13.15;;;;;;;;;;4997106;28;20073;-69
2022/11/04 10:35:04;;;;;;;18.15;11.15;;;;;;;;;;4966100;28;20444;-69
2022/11/04 10:37:30;;;;;;;20.67;12.40;;;;;;;;;;4999544;28;20068;-69
2022/11/04 10:40:18;;;;;;;26.60;12.45;;;;;;;;;;4998573;28;20038;-68
2022/11/04 10:42:43;;;;;;;22.15;12.30;;;;;;;;;;4983901;28;20042;-68
2022/11/04 10:45:10;;;;;;;23.02;12.88;;;;;;;;;;5028689;27;20044;-68
2022/11/04 10:47:45;;;;;;;24.63;12.15;;;;;;;;;;5103218;27;20024;-68
2022/11/04 10:50:13;;;;;;;30.60;12.15;;;;;;;;;;5105944;27;20453;-68
2022/11/04 10:52:38;;;;;;;25.80;12.70;;;;;;;;;;5108281;27;20377;-68
2022/11/04 10:55:22;;;;;;;22.83;11.63;;;;;;;;;;5108698;27;20028;-68
2022/11/04 10:57:47;;;;;;;22.23;11.90;;;;;;;;;;5082830;28;20032;-69
2022/11/04 11:00:31;;;;;;;26.42;12.05;;;;;;;;;;5109802;27;20031;-68
2022/11/04 11:02:56;;;;;;;21.95;10.82;;;;;;;;;;5106480;27;20412;-68
2022/11/04 11:05:24;;;;;;;25.17;12.23;;;;;;;;;;5083589;27;20019;-69
2022/11/04 11:07:54;;;;;;;22.20;12.77;;;;;;;;;;5105162;27;20065;-69
2022/11/04 11:10:19;;;;;;;;;;;;;;;;;;5105856;27;20032;-68
2022/11/04 11:12:50;;;;;;;20.13;10.30;;;;;;;;;;5105986;27;19972;-68
2022/11/04 11:15:31;;;;;;;22.95;10.70;;;;;;;;;;5103870;27;20046;-68
2022/11/04 11:18:12;;;;;;;16.33;9.30;;;;;;;;;;5107375;27;20032;-67
2022/11/04 11:20:39;;;;;;;19.02;9.43;;;;;;;;;;5103611;27;20028;-68
2022/11/04 11:23:08;;;;;;;18.52;9.10;;;;;;;;;;5107349;27;20028;-71
2022/11/04 11:25:34;;;;;;;19.50;9.25;;;;;;;;;;5106468;27;20032;-66
2022/11/04 11:27:59;;;;;;;16.55;9.20;;;;;;;;;;5106758;28;20031;-66
2022/11/04 11:30:43;;;;;;;17.43;9.00;;;;;;;;;;5109237;27;20024;-68
2022/11/04 11:33:23;;;;;;;14.48;8.35;;;;;;;;;;5107267;27;20283;-66
2022/11/04 11:35:52;;;;;;;19.73;7.82;;;;;;;;;;5107905;27;20073;-68
2022/11/04 11:38:22;;;;;;;13.68;7.07;;;;;;;;;;5100383;27;20034;-68
2022/11/04 11:40:49;;;;;;;14.27;7.22;;;;;;;;;;5101468;27;20019;-68
2022/11/04 11:43:25;;;;;;;12.20;7.07;;;;;;;;;;5081271;28;20058;-68
2022/11/04 11:45:53;;;;;;;18.08;7.68;;;;;;;;;;5086783;28;20028;-68
2022/11/04 11:48:29;;;;;;;14.95;7.22;;;;;;;;;;5098714;27;20032;-67
2022/11/04 11:50:58;;;;;;;16.35;6.85;;;;;;;;;;5077685;28;20081;-68
2022/11/04 11:53:24;;;;;;;15.43;7.05;;;;;;;;;;5085319;28;20023;-68
2022/11/04 11:56:17;;;;;;;11.00;6.25;;;;;;;;;;5082851;28;20031;-74
2022/11/04 11:58:45;;;;;;;16.60;6.10;;;;;;;;;;5090187;27;20032;-69
2022/11/04 12:01:41;;;;;;;12.10;6.60;;;;;;;;;;5096967;28;20027;-74
2022/11/04 12:04:06;;;;;;;16.50;7.25;;;;;;;;;;5079285;28;20049;-72
2022/11/04 12:06:41;;;;;;;13.75;6.38;;;;;;;;;;5080935;28;20381;-68
2022/11/04 12:09:11;;;;;;;19.75;6.97;;;;;;;;;;5096822;27;20023;-74
2022/11/04 12:11:36;;;;;;;14.48;6.85;;;;;;;;;;5097951;27;20493;-67
2022/11/04 12:14:04;;;;;;;19.53;7.40;;;;;;;;;;5095220;27;20023;-68
2022/11/04 12:16:39;;;;;;;18.85;7.65;;;;;;;;;;5101664;27;20031;-67
2022/11/04 12:19:30;;;;;;;15.50;7.32;;;;;;;;;;5100691;27;20504;-67
2022/11/04 12:22:20;;;;;;;16.52;6.68;;;;;;;18.25;nan;99900.44;5104607;27;20027;-68
2022/11/04 12:25:15;;;;;;;15.10;6.75;;;;;;;;;;5078593;28;20027;-67
2022/11/04 12:27:54;;;;;;;13.32;6.60;;;;;;;;;;5014058;28;20089;-73
2022/11/04 12:30:23;;;;;;;11.95;6.32;;;;;;;18.44;nan;99783.13;5000676;28;20866;-67
2022/11/04 12:32:49;;;;;;;17.55;6.82;;;;;;;;;;5013572;28;20034;-67
2022/11/04 12:35:26;;;;;;;16.25;7.22;;;;;;;18.48;nan;99792.13;4999292;28;20071;-68
2022/11/04 12:38:02;;;;;;;11.18;6.88;;;;;;;;;;5016996;28;20041;-67
2022/11/04 12:40:50;;;;;;;12.05;6.95;;;;;;;18.46;nan;99764.16;5014584;28;20028;-67
2022/11/04 12:43:36;;;;;;;13.27;6.97;;;;;;;18.47;nan;99774.53;4984474;28;20034;-68
2022/11/04 12:46:18;;;;;;;14.65;6.82;;;;;;;18.43;nan;99760.19;5013242;28;20026;-68
2022/11/04 12:48:43;;;;;;;13.00;7.40;;;;;;;;;;5020831;28;20033;-73
2022/11/04 12:51:27;;;;;;;13.00;6.93;;;;;;;18.42;nan;99771.97;5003116;28;20124;-73
2022/11/04 12:53:59;;;;;;;15.93;7.10;;;;;;;18.39;nan;99759.22;4998910;28;20352;-73
2022/11/04 12:56:40;;;;;;;14.77;6.97;;;;;;;18.36;nan;99813.09;5012689;28;20038;-66
2022/11/04 12:59:43;;;;;;;16.92;7.25;;;;;;;18.32;nan;99766.03;5012217;28;20040;-73
2022/11/04 13:02:20;;;;;;;12.32;7.10;;;;;;;;;;5009034;28;20044;-73
2022/11/04 13:04:49;;;;;;;16.13;6.57;;;;;;;;;;5085265;27;20484;-72
2022/11/04 13:07:32;;;;;;;24.67;7.87;;;;;;;18.19;nan;99807.50;5089548;28;20043;-67
2022/11/04 13:10:06;;;;;;;15.13;8.18;;;;;;;;;;5082260;28;20031;-74
2022/11/04 13:12:35;;;;;;;17.02;7.97;;;;;;;;;;5089162;28;20143;-73
2022/11/04 13:15:02;;;;;;;14.23;7.20;;;;;;;;;;5107512;28;20089;-74
2022/11/04 13:17:29;;;;;;;16.83;6.75;;;;;;;;;;5089985;28;20035;-66
2022/11/04 13:20:00;;;;;;;12.27;6.75;;;;;;;;;;5106078;28;20134;-67
2022/11/04 13:22:30;;;;;;;14.25;6.65;;;;;;;18.07;nan;99722.69;5106043;27;20058;-67
2022/11/04 13:25:02;;;;;;;15.10;6.97;;;;;;;18.05;nan;99768.28;5087986;28;20568;-67
2022/11/04 13:27:36;;;;;;;11.80;7.38;;;;;;;18.03;nan;99722.50;5100157;28;20031;-68
2022/11/04 13:30:22;;;;;;;18.50;7.07;;;;;;;18.04;nan;99773.91;5103599;28;20114;-67
2022/11/04 13:33:24;;;;;;;16.85;7.97;;;;;;;17.99;nan;99752.66;5104179;28;20031;-68
2022/11/04 13:36:00;;;;;;;13.98;7.18;;;;;;;;;;5089793;28;20031;-74
2022/11/04 13:38:30;;;;;;;14.57;6.63;;;;;;;;;;5092313;28;20173;-74
2022/11/04 13:41:04;;;;;;;13.20;6.90;;;;;;;;;;5111070;28;20116;-68
2022/11/04 13:43:45;;;;;;;17.48;6.63;;;;;;;;;;5107157;28;20023;-68
2022/11/04 13:46:17;;;;;;;16.52;7.45;;;;;;;;;;5095069;28;20122;-68
2022/11/04 13:49:08;;;;;;;14.52;7.60;;;;;;;;;;5102099;28;20054;-70
2022/11/04 13:51:38;;;;;;;11.32;7.00;;;;;;;;;;5061654;28;20051;-68
2022/11/04 13:54:05;;;;;;;11.48;6.65;;;;;;;;;;5096477;28;20520;-69
2022/11/04 13:56:34;;;;;;;12.10;6.60;;;;;;;;;;5089596;28;20019;-67
2022/11/04 13:59:05;;;;;;;15.45;6.65;;;;;;;;;;5101309;28;20045;-68
2022/11/04 14:01:31;;;;;;;19.52;7.68;;;;;;;;;;5087223;28;20115;-67
2022/11/04 14:04:11;;;;;;;13.80;6.35;;;;;;;;;;5103784;28;20085;-68
2022/11/04 14:06:55;;;;;;;19.63;6.93;;;;;;;;;;5108389;27;20023;-68
2022/11/04 14:09:35;;;;;;;15.90;7.38;;;;;;;;;;5092990;27;20024;-67
2022/11/04 14:12:09;;;;;;;18.73;7.82;;;;;;;;;;5111496;27;20140;-68
2022/11/04 14:14:38;;;;;;;17.73;7.10;;;;;;;;;;5108677;27;20046;-71
2022/11/04 14:17:06;;;;;;;15.55;6.70;;;;;;;;;;5106333;27;20102;-70
2022/11/04 14:19:50;;;;;;;13.77;7.10;;;;;;;;;;5107975;27;20047;-70
2022/11/04 14:22:16;;;;;;;14.73;6.68;;;;;;;17.82;nan;99774.50;5105454;27;20040;-71
2022/11/04 14:24:42;;;;;;;13.65;6.40;;;;;;;;;;5109123;27;20026;-70
2022/11/04 14:27:25;;;;;;;15.50;7.15;;;;;;;;;;5090529;28;20135;-72
2022/11/04 14:29:51;;;;;;;17.08;7.32;;;;;;;;;;5105099;27;20030;-72
2022/11/04 14:32:21;;;;;;;17.45;7.63;;;;;;;;;;5112680;27;20131;-71
2022/11/04 14:34:46;;;;;;;12.32;7.07;;;;;;;;;;5109118;27;20028;-72
2022/11/04 14:37:20;;;;;;;18.33;7.78;;;;;;;;;;5108893;27;20026;-71
2022/11/04 14:39:52;;;;;;;13.90;7.43;;;;;;;;;;5109725;27;20073;-71
2022/11/04 14:43:09;;;;;;;14.73;7.78;;;;;;;17.43;nan;99691.13;5110713;27;20042;-72
2022/11/04 14:45:38;;;;;;;15.48;7.78;;;;;;;;;;5040139;28;20485;-71
2022/11/04 14:48:21;;;;;;;12.80;7.17;;;;;;;;;;5094414;28;20024;-72
2022/11/04 14:50:50;;;;;;;17.73;8.05;;;;;;;;;;5095244;28;20031;-70
2022/11/04 14:53:30;;;;;;;14.17;7.37;;;;;;;;;;5111876;27;20030;-70